KNZY/NZY METAR and TAF weather

Enter ICAO airport designator
Station Type Date Time Source
KNZY METAR 2018/12/10 12:52 UTC NOAA

KNZY 101252Z AUTO 05003KT 8SM CLR 14/11 A3008 RMK AO2 SLP186 T01390111 PNO $


Station Type Date Time Source
KNZY Decoded METAR 2018/12/10 12:52 UTC NOAA

NAS NORTH ISLAND, SAN DIEGO, CA, United States (KNZY) 32-42N 117-13W 14M
Dec 10, 2018 - 07:52 AM EST / 2018.12.10 1252 UTC
Wind: from the NE (050 degrees) at 3 MPH (3 KT):0
Visibility: 8 mile(s):0
Sky conditions: clear
Temperature: 57.0 F (13.9 C)
Dew Point: 52.0 F (11.1 C)
Relative Humidity: 83%
Pressure (altimeter): 30.08 in. Hg (1018 hPa)
ob: KNZY 101252Z AUTO 05003KT 8SM CLR 14/11 A3008 RMK AO2 SLP186 T01390111 PNO
cycle: 13

Station Type Date Time Source
KNZY TAF 2018/12/10 07:03 UTC NOAA

TAF KNZY 1007/1107 VRB06KT 9999 SCT240 QNH3006INS
BECMG 1019/1021 31009KT 9999 FEW010 QNH3000INS AUTOMATED SENSOR METWATCH 1007 TIL 1013 T15/1012Z T20/1022Z FS30135


Example: see airport list